Greenland, Michigan
Current Conditions -  °F | °C
As of 3:09 PM on Wednesday 26 Nov 2014 (Local Time) from KCMX Reporting Station
Light Snow Light Snow  
Wind Chill: 12°   Ceiling: 1000
Heat Index: 24°   Visibility: 4mi
Dew Point: 18°   Wind: 14mph
Humidity: 77%   Direction: 20°NNE
Pressure: 30.1"   Gusts: NA
Location:  46.78°N, 89.1°W
Report Text: KCMX 262009Z AUTO 02012KT 4SM -SN BKN010 OVC017 M04/M08 A3010 RMK AO2 P0000 T10441078
Loading
Personal Weather Stations






























Interactive Weather Map New forecast layout! Learn more

10-Day Weather Forecast

Advertisements
Track Severe Weather on mobile